Time;durP1;ratioP1;P1;durP2;ratioP2;P2;SDS_P1;SDS_P2;PMS_P1;PMS_P2;Temp;Humidity;BMP_temperature;BMP_pressure;BME280_temperature;BME280_humidity;BME280_pressure;Samples;Min_cycle;Max_cycle;Signal;HPM_P1;HPM_P2
2023/06/08 00:02:08;;;;;;;5.28;4.28;;;16.80;1.00;;;;;;7391520;19;20613;-68
2023/06/08 00:04:40;;;;;;;6.93;4.43;;;16.90;1.00;;;;;;7370336;19;20390;-67
2023/06/08 00:07:14;;;;;;;5.10;3.80;;;16.90;1.00;;;;;;7369987;19;20015;-67
2023/06/08 00:09:44;;;;;;;4.97;4.22;;;16.90;1.00;;;;;;7367683;19;20025;-67
2023/06/08 00:12:15;;;;;;;6.40;4.78;;;16.80;1.00;;;;;;7370231;19;20530;-67
2023/06/08 00:14:45;;;;;;;5.07;4.40;;;16.70;1.00;;;;;;7370259;19;20017;-68
2023/06/08 00:17:15;;;;;;;4.53;4.13;;;16.70;1.00;;;;;;7393024;19;20018;-68
2023/06/08 00:19:45;;;;;;;9.77;4.50;;;16.70;1.00;;;;;;7368843;19;20022;-68
2023/06/08 00:22:18;;;;;;;7.75;4.72;;;16.70;1.00;;;;;;7370096;19;20019;-67
2023/06/08 00:24:48;;;;;;;5.18;4.45;;;16.60;1.00;;;;;;7369210;19;20044;-67
2023/06/08 00:27:18;;;;;;;6.28;4.15;;;16.70;1.00;;;;;;7370247;19;20027;-67
2023/06/08 00:29:48;;;;;;;6.03;3.90;;;16.60;1.00;;;;;;7366849;19;20474;-67
2023/06/08 00:32:18;;;;;;;5.10;4.30;;;16.60;1.00;;;;;;7391149;19;20019;-67
2023/06/08 00:34:48;;;;;;;5.93;4.40;;;16.50;1.00;;;;;;7369382;19;20014;-68
2023/06/08 00:37:20;;;;;;;4.93;3.85;;;16.60;1.00;;;;;;7369313;19;20601;-68
2023/06/08 00:39:50;;;;;;;5.35;4.03;;;16.60;1.00;;;;;;7368760;19;20522;-68
2023/06/08 00:42:20;;;;;;;7.63;4.22;;;16.50;1.00;;;;;;7369743;19;20474;-67
2023/06/08 00:44:50;;;;;;;5.68;4.38;;;16.40;1.00;;;;;;7368763;19;20018;-68
2023/06/08 00:47:20;;;;;;;7.68;4.60;;;16.40;1.00;;;;;;7391537;19;20094;-68
2023/06/08 00:49:52;;;;;;;6.90;4.75;;;16.40;1.00;;;;;;7365971;19;20019;-68
2023/06/08 00:52:25;;;;;;;6.90;4.97;;;16.50;1.00;;;;;;7369150;19;20018;-68
2023/06/08 00:54:58;;;;;;;5.88;4.38;;;16.50;1.00;;;;;;7367934;19;20095;-68
2023/06/08 00:57:28;;;;;;;4.75;4.18;;;16.30;1.00;;;;;;7369221;19;20010;-68
2023/06/08 01:00:01;;;;;;;5.97;4.53;;;16.40;1.00;;;;;;7367233;19;20022;-68
2023/06/08 01:02:32;;;;;;;7.18;4.47;;;16.40;1.00;;;;;;7391232;19;20047;-68
2023/06/08 01:05:03;;;;;;;4.97;4.40;;;16.40;1.00;;;;;;7367486;19;20017;-69
2023/06/08 01:07:48;;;;;;;5.50;4.32;;;16.40;1.00;;;;;;7365872;19;20014;-68
2023/06/08 01:10:27;;;;;;;8.05;4.85;;;16.40;1.00;;;;;;7365429;19;20078;-68
2023/06/08 01:13:05;;;;;;;7.80;4.95;;;16.40;1.00;;;;;;7369367;19;20109;-68
2023/06/08 01:15:41;;;;;;;7.22;4.97;;;16.40;1.00;;;;;;7368253;19;20466;-68
2023/06/08 01:18:17;;;;;;;6.53;4.65;;;16.30;1.00;;;;;;7369639;19;20788;-68
2023/06/08 01:21:02;;;;;;;9.95;5.45;;;16.30;1.00;;;;;;7365930;19;20022;-68
2023/06/08 01:23:40;;;;;;;;;;;16.20;1.00;;;;;;7390651;19;20011;-68
2023/06/08 01:26:15;;;;;;;6.97;4.90;;;16.00;1.00;;;;;;7367757;19;19930;-68
2023/06/08 01:28:50;;;;;;;4.95;4.13;;;15.90;1.00;;;;;;7366441;19;20074;-68
2023/06/08 01:31:20;;;;;;;7.25;4.50;;;15.80;1.00;;;;;;7366510;19;20010;-68
2023/06/08 01:33:50;;;;;;;6.13;4.47;;;15.90;1.00;;;;;;7368931;19;20047;-67
2023/06/08 01:36:27;;;;;;;6.03;4.15;;;15.90;1.00;;;;;;7368706;19;20010;-68
2023/06/08 01:39:08;;;;;;;10.98;4.63;;;15.80;1.00;;;;;;7368509;19;20018;-68
2023/06/08 01:41:45;;;;;;;8.48;4.63;;;15.90;1.00;;;;;;7388328;19;20550;-68
2023/06/08 01:44:17;;;;;;;4.57;4.00;;;15.80;1.00;;;;;;7367020;19;20018;-67
2023/06/08 01:46:53;;;;;;;9.10;4.88;;;15.70;1.00;;;;;;7366921;19;20122;-68
2023/06/08 01:49:25;;;;;;;5.03;4.32;;;15.70;1.00;;;;;;7365921;19;20861;-67
2023/06/08 01:51:55;;;;;;;6.45;4.70;;;15.60;1.00;;;;;;7366033;19;20528;-67
2023/06/08 01:54:25;;;;;;;5.80;4.85;;;15.50;1.00;;;;;;7365807;19;20101;-67
2023/06/08 01:56:58;;;;;;;5.38;4.88;;;15.50;1.00;;;;;;7366769;19;20637;-67
2023/06/08 01:59:27;;;;;;;6.68;4.57;;;15.30;1.00;;;;;;7387203;19;20059;-68
2023/06/08 02:01:57;;;;;;;5.68;4.50;;;15.20;1.00;;;;;;7366535;19;20018;-67
2023/06/08 02:04:27;;;;;;;5.70;4.68;;;15.30;1.00;;;;;;7366518;19;20010;-67
2023/06/08 02:06:57;;;;;;;7.30;5.35;;;15.10;1.00;;;;;;7365499;19;20014;-67
2023/06/08 02:09:27;;;;;;;5.30;4.80;;;15.20;1.00;;;;;;7365337;19;20477;-68
2023/06/08 02:12:09;;;;;;;5.18;4.68;;;15.20;1.00;;;;;;7366068;19;20041;-68
2023/06/08 02:14:41;;;;;;;5.80;4.47;;;15.10;1.00;;;;;;7388762;19;20098;-68
2023/06/08 02:17:13;;;;;;;5.82;4.90;;;15.10;1.00;;;;;;7367226;19;20478;-67
2023/06/08 02:19:43;;;;;;;5.25;4.68;;;15.00;1.00;;;;;;7311990;19;20014;-68
2023/06/08 02:22:13;;;;;;;6.25;4.80;;;14.90;1.00;;;;;;7387870;19;20022;-67
2023/06/08 02:24:43;;;;;;;5.43;4.90;;;14.90;1.00;;;;;;7366910;19;20011;-67
2023/06/08 02:27:16;;;;;;;5.13;4.63;;;14.90;1.00;;;;;;7366377;19;20014;-67
2023/06/08 02:29:46;;;;;;;7.07;5.43;;;14.90;1.00;;;;;;7364687;19;20022;-67
2023/06/08 02:32:16;;;;;;;5.45;4.65;;;15.00;1.00;;;;;;7387258;19;20018;-67
2023/06/08 02:34:55;;;;;;;6.30;4.95;;;14.90;1.00;;;;;;7365102;19;20479;-67
2023/06/08 02:37:26;;;;;;;7.78;5.10;;;14.70;1.00;;;;;;7366102;19;20546;-68
2023/06/08 02:39:57;;;;;;;5.60;5.10;;;14.80;1.00;;;;;;7364463;19;20044;-68
2023/06/08 02:42:29;;;;;;;5.65;5.07;;;14.70;1.00;;;;;;7365646;19;20046;-67
2023/06/08 02:44:59;;;;;;;7.97;5.60;;;14.70;1.00;;;;;;7365706;19;20134;-68
2023/06/08 02:47:30;;;;;;;7.82;5.63;;;14.70;1.00;;;;;;7386957;19;20482;-68
2023/06/08 02:50:00;;;;;;;5.90;4.72;;;14.50;1.00;;;;;;7363609;19;20018;-68
2023/06/08 02:52:30;;;;;;;6.50;5.10;;;14.50;1.00;;;;;;7365287;19;20773;-67
2023/06/08 02:55:00;;;;;;;6.70;5.40;;;14.60;1.00;;;;;;7365150;19;20367;-67
2023/06/08 02:57:33;;;;;;;7.45;5.63;;;14.60;1.00;;;;;;7365128;19;20014;-67
2023/06/08 03:00:04;;;;;;;7.60;5.18;;;14.50;1.00;;;;;;7362772;19;20014;-68
2023/06/08 03:02:34;;;;;;;8.82;4.90;;;14.50;1.00;;;;;;7386275;19;20466;-68
2023/06/08 03:05:04;;;;;;;6.85;5.40;;;14.50;1.00;;;;;;7364390;19;20018;-68
2023/06/08 03:07:36;;;;;;;5.88;5.10;;;14.50;1.00;;;;;;7365070;19;20078;-68
2023/06/08 03:10:07;;;;;;;8.20;5.40;;;14.40;1.00;;;;;;7363197;19;20082;-68
2023/06/08 03:12:39;;;;;;;8.88;5.68;;;14.40;1.00;;;;;;7364487;19;20034;-68
2023/06/08 03:15:10;;;;;;;9.25;5.38;;;14.40;1.00;;;;;;7364318;19;20487;-68
2023/06/08 03:17:42;;;;;;;6.13;5.53;;;14.30;1.00;;;;;;7386535;19;20023;-68
2023/06/08 03:20:17;;;;;;;6.70;5.55;;;14.20;1.00;;;;;;7364477;19;20022;-68
2023/06/08 03:22:48;;;;;;;6.60;5.20;;;14.20;1.00;;;;;;7364003;19;20015;-68
2023/06/08 03:25:21;;;;;;;5.22;4.72;;;14.30;1.00;;;;;;7364238;19;20567;-68
2023/06/08 03:27:53;;;;;;;8.13;5.60;;;14.30;1.00;;;;;;7365405;19;20013;-67
2023/06/08 03:30:23;;;;;;;6.53;5.60;;;14.20;1.00;;;;;;7363755;19;20400;-67
2023/06/08 03:32:53;;;;;;;7.28;5.63;;;14.30;1.00;;;;;;7364697;19;20026;-68
2023/06/08 03:35:23;;;;;;;6.53;5.00;;;14.50;1.00;;;;;;7383131;19;20029;-68
2023/06/08 03:37:53;;;;;;;6.28;5.25;;;14.60;1.00;;;;;;7364146;19;20022;-68
2023/06/08 03:40:23;;;;;;;5.55;4.82;;;14.90;1.00;;;;;;7362380;19;20018;-68
2023/06/08 03:42:56;;;;;;;5.03;4.53;;;15.50;1.00;;;;;;7362436;19;20038;-68
2023/06/08 03:45:26;;;;;;;6.53;4.88;;;15.90;1.00;;;;;;7363192;19;20072;-68
2023/06/08 03:47:56;;;;;;;6.22;4.55;;;16.30;1.00;;;;;;7364978;19;20027;-68
2023/06/08 03:50:26;;;;;;;5.75;4.60;;;16.50;1.00;;;;;;7385546;19;20033;-68
2023/06/08 03:52:56;;;;;;;6.50;5.10;;;16.60;1.00;;;;;;7363136;19;20015;-68
2023/06/08 03:55:26;;;;;;;5.10;4.57;;;16.30;1.00;;;;;;7361561;19;21100;-68
2023/06/08 03:58:00;;;;;;;6.93;4.68;;;16.80;1.00;;;;;;7362778;19;20740;-68
2023/06/08 04:00:30;;;;;;;6.03;4.80;;;17.40;1.00;;;;;;7363231;19;20477;-68
2023/06/08 04:03:00;;;;;;;5.53;4.72;;;17.50;1.00;;;;;;7363870;19;20029;-68
2023/06/08 04:05:30;;;;;;;5.65;4.38;;;17.60;1.00;;;;;;7384610;19;20496;-68
2023/06/08 04:08:01;;;;;;;6.28;4.47;;;17.80;1.00;;;;;;7362521;19;20510;-68
2023/06/08 04:10:31;;;;;;;6.45;5.32;;;17.80;1.00;;;;;;7356674;19;20015;-68
2023/06/08 04:13:03;;;;;;;6.85;4.25;;;18.00;1.00;;;;;;7363103;19;20011;-68
2023/06/08 04:15:33;;;;;;;4.93;4.47;;;18.10;1.00;;;;;;7362958;19;20014;-68
2023/06/08 04:18:05;;;;;;;7.72;4.28;;;18.20;1.00;;;;;;7364158;19;20117;-68
2023/06/08 04:20:35;;;;;;;4.50;4.10;;;18.80;1.00;;;;;;7384261;19;20026;-68
2023/06/08 04:23:05;;;;;;;4.32;3.92;;;18.70;1.00;;;;;;7363239;19;21081;-68
2023/06/08 04:25:35;;;;;;;6.30;4.63;;;19.40;1.00;;;;;;7362366;19;20577;-68
2023/06/08 04:28:07;;;;;;;6.68;4.57;;;19.90;1.00;;;;;;7363476;19;20070;-68
2023/06/08 04:30:37;;;;;;;5.70;4.50;;;19.90;1.00;;;;;;7361721;19;20088;-68
2023/06/08 04:33:07;;;;;;;6.05;4.70;;;19.80;1.00;;;;;;7363093;19;20031;-68
2023/06/08 04:35:38;;;;;;;6.80;4.93;;;20.00;1.00;;;;;;7383554;19;20018;-68
2023/06/08 04:38:14;;;;;;;4.97;4.57;;;20.00;1.00;;;;;;7362408;19;20014;-68
2023/06/08 04:40:52;;;;;;;5.80;4.35;;;20.00;1.00;;;;;;7360448;19;20876;-68
2023/06/08 04:43:30;;;;;;;5.57;4.60;;;20.00;1.00;;;;;;7361994;19;20019;-68
2023/06/08 04:46:00;;;;;;;4.90;4.30;;;20.10;1.00;;;;;;7366696;19;20089;-67
2023/06/08 04:48:33;;;;;;;5.93;4.80;;;20.40;1.00;;;;;;7369311;19;20018;-67
2023/06/08 04:51:09;;;;;;;7.00;4.53;;;19.90;1.00;;;;;;7367088;19;20047;-67
2023/06/08 04:53:42;;;;;;;5.15;4.38;;;19.00;1.00;;;;;;7390597;19;20470;-67
2023/06/08 04:56:18;;;;;;;5.90;4.60;;;20.10;1.00;;;;;;7369224;19;20364;-67
2023/06/08 04:58:51;;;;;;;5.38;4.05;;;20.50;1.00;;;;;;7368146;19;20022;-67
2023/06/08 05:01:21;;;;;;;5.80;4.45;;;21.00;1.00;;;;;;7368001;19;20010;-67
2023/06/08 05:03:51;;;;;;;5.03;4.13;;;21.40;1.00;;;;;;7368978;19;20040;-67
2023/06/08 05:06:21;;;;;;;6.05;4.45;;;21.50;1.00;;;;;;7366971;19;20376;-67
2023/06/08 05:08:51;;;;;;;7.88;5.55;;;21.50;1.00;;;;;;7370086;19;20015;-67
2023/06/08 05:11:22;;;;;;;6.28;5.15;;;20.50;1.00;;;;;;7387909;19;20014;-67
2023/06/08 05:13:55;;;;;;;7.80;5.63;;;19.00;1.00;;;;;;7368984;19;20024;-67
2023/06/08 05:16:25;;;;;;;6.90;5.40;;;18.20;1.00;;;;;;7367818;19;20500;-67
2023/06/08 05:18:55;;;;;;;8.27;5.90;;;18.20;1.00;;;;;;7368873;19;20023;-67
2023/06/08 05:21:25;;;;;;;8.05;6.18;;;18.80;1.00;;;;;;7369195;19;20031;-67
2023/06/08 05:23:55;;;;;;;7.40;6.63;;;20.10;1.00;;;;;;7368695;19;20109;-67
2023/06/08 05:26:25;;;;;;;8.13;5.97;;;20.80;1.00;;;;;;7390278;19;20017;-68
2023/06/08 05:28:58;;;;;;;8.50;6.03;;;21.30;1.00;;;;;;7368410;19;20011;-68
2023/06/08 05:31:28;;;;;;;6.88;5.43;;;21.90;1.00;;;;;;7366995;19;20474;-68
2023/06/08 05:33:58;;;;;;;6.88;6.15;;;22.40;1.00;;;;;;7368627;19;20018;-68
2023/06/08 05:36:28;;;;;;;7.50;5.85;;;22.80;1.00;;;;;;7368844;19;20020;-68
2023/06/08 05:39:03;;;;;;;5.97;5.43;;;23.10;1.00;;;;;;7368138;19;20056;-68
2023/06/08 05:41:34;;;;;;;9.05;5.82;;;22.70;1.00;;;;;;7388886;19;20018;-68
2023/06/08 05:44:06;;;;;;;6.40;5.40;;;22.40;1.00;;;;;;7367607;19;20524;-68
2023/06/08 05:46:36;;;;;;;7.40;5.65;;;23.20;1.00;;;;;;7367199;19;20074;-68
2023/06/08 05:49:06;;;;;;;15.25;5.22;;;22.80;1.00;;;;;;7366804;19;20010;-68
2023/06/08 05:51:36;;;;;;;6.45;5.38;;;22.70;1.00;;;;;;7367096;19;20018;-67
2023/06/08 05:54:06;;;;;;;10.13;5.40;;;22.30;1.00;;;;;;7367484;19;20045;-67
2023/06/08 05:56:36;;;;;;;5.80;5.20;;;23.10;1.00;;;;;;7388422;19;20042;-67
2023/06/08 05:59:09;;;;;;;7.32;5.15;;;23.30;1.00;;;;;;7365886;19;20498;-67
2023/06/08 06:01:39;;;;;;;8.65;5.97;;;23.00;1.00;;;;;;7366766;19;20028;-67
2023/06/08 06:04:10;;;;;;;6.38;5.43;;;22.40;1.00;;;;;;7357107;19;20025;-66
2023/06/08 06:06:55;;;;;;;6.38;5.75;;;21.60;1.00;;;;;;7367697;19;20011;-67
2023/06/08 06:09:25;;;;;;;8.10;5.47;;;20.80;1.00;;;;;;7366417;19;20033;-67
2023/06/08 06:11:55;;;;;;;6.20;5.55;;;20.20;1.00;;;;;;7365894;19;20044;-67
2023/06/08 06:14:29;;;;;;;8.27;5.50;;;19.90;1.00;;;;;;7388552;19;20014;-67
2023/06/08 06:16:59;;;;;;;6.32;5.25;;;20.00;1.00;;;;;;7367503;19;20014;-67
2023/06/08 06:19:38;;;;;;;6.90;6.20;;;19.60;1.00;;;;;;7365605;19;20022;-67
2023/06/08 06:22:09;;;;;;;10.10;6.20;;;19.70;1.00;;;;;;7366005;19;20460;-67
2023/06/08 06:24:39;;;;;;;6.88;5.60;;;19.50;1.00;;;;;;7365499;19;20021;-68
2023/06/08 06:27:09;;;;;;;6.45;5.40;;;19.20;1.00;;;;;;7366577;19;20082;-67
2023/06/08 06:29:42;;;;;;;6.53;5.55;;;19.30;1.00;;;;;;7386579;19;20018;-67
2023/06/08 06:32:12;;;;;;;6.82;5.95;;;19.90;1.00;;;;;;7365053;19;20015;-67
2023/06/08 06:34:44;;;;;;;6.50;5.78;;;20.40;1.00;;;;;;7365427;19;20014;-67
2023/06/08 06:37:14;;;;;;;7.88;5.32;;;21.20;1.00;;;;;;7366715;19;20141;-68
2023/06/08 06:39:44;;;;;;;7.88;5.70;;;21.70;1.00;;;;;;7365165;19;20006;-67
2023/06/08 06:42:15;;;;;;;7.13;5.72;;;21.80;1.00;;;;;;7364638;19;20955;-67
2023/06/08 06:44:47;;;;;;;6.32;5.45;;;21.40;1.00;;;;;;7386299;19;20471;-67
2023/06/08 06:47:17;;;;;;;5.55;5.00;;;21.10;1.00;;;;;;7366146;19;20022;-67
2023/06/08 06:49:47;;;;;;;5.53;5.03;;;21.20;1.00;;;;;;7363927;19;20014;-67
2023/06/08 06:52:17;;;;;;;6.13;4.90;;;21.00;1.00;;;;;;7363993;19;20018;-68
2023/06/08 06:54:47;;;;;;;5.93;4.75;;;21.30;1.00;;;;;;7365338;19;20007;-67
2023/06/08 06:57:17;;;;;;;6.55;4.55;;;21.10;1.00;;;;;;7365724;19;20023;-67
2023/06/08 06:59:50;;;;;;;8.20;4.82;;;21.30;1.00;;;;;;7385697;19;20535;-67
2023/06/08 07:02:20;;;;;;;5.50;4.65;;;21.20;1.00;;;;;;7365989;19;20030;-67
2023/06/08 07:04:52;;;;;;;5.72;4.47;;;21.30;1.00;;;;;;7364617;19;20014;-67
2023/06/08 07:07:23;;;;;;;7.03;4.35;;;21.20;1.00;;;;;;7365424;19;20505;-67
2023/06/08 07:09:53;;;;;;;8.27;4.80;;;21.40;1.00;;;;;;7363769;19;20035;-68
2023/06/08 07:12:23;;;;;;;4.97;4.45;;;21.60;1.00;;;;;;7364235;19;20010;-67
2023/06/08 07:14:55;;;;;;;5.60;4.80;;;21.90;1.00;;;;;;7386893;19;20109;-68
2023/06/08 07:17:25;;;;;;;4.93;4.35;;;21.50;1.00;;;;;;7365243;19;20011;-68
2023/06/08 07:19:55;;;;;;;5.03;4.38;;;22.00;1.00;;;;;;7363441;19;20015;-67
2023/06/08 07:22:26;;;;;;;4.90;4.30;;;22.40;1.00;;;;;;7363323;19;20026;-67
2023/06/08 07:25:04;;;;;;;6.50;5.07;;;22.50;1.00;;;;;;7364944;19;20014;-68
2023/06/08 07:27:54;;;;;;;5.80;4.28;;;22.60;1.00;;;;;;7364591;19;20024;-66
2023/06/08 07:30:27;;;;;;;5.78;4.57;;;23.10;1.00;;;;;;7363748;19;20018;-66
2023/06/08 07:32:57;;;;;;;9.20;4.47;;;23.00;1.00;;;;;;7363818;19;20035;-66
2023/06/08 07:35:27;;;;;;;6.15;4.32;;;23.40;1.00;;;;;;7385452;19;20018;-67
2023/06/08 07:37:57;;;;;;;8.98;4.07;;;23.00;1.00;;;;;;7362949;19;20042;-67
2023/06/08 07:40:27;;;;;;;6.85;4.68;;;22.90;1.00;;;;;;7363002;19;20090;-67
2023/06/08 07:42:57;;;;;;;6.20;4.65;;;22.80;1.00;;;;;;7362706;19;20053;-67
2023/06/08 07:45:30;;;;;;;10.63;4.57;;;22.30;1.00;;;;;;7364057;19;20113;-68
2023/06/08 07:48:00;;;;;;;5.88;4.15;;;22.80;1.00;;;;;;7363934;19;20039;-67
2023/06/08 07:50:30;;;;;;;5.63;4.82;;;22.70;1.00;;;;;;7383515;19;20025;-68
2023/06/08 07:53:00;;;;;;;5.38;4.88;;;22.80;1.00;;;;;;7362001;19;20102;-68
2023/06/08 07:55:30;;;;;;;5.68;5.15;;;22.50;1.00;;;;;;7363577;19;20380;-67
2023/06/08 07:58:00;;;;;;;6.18;5.57;;;21.80;1.00;;;;;;7364315;19;20015;-67
2023/06/08 08:00:35;;;;;;;5.70;5.18;;;22.10;1.00;;;;;;7362755;19;20022;-67
2023/06/08 08:03:05;;;;;;;8.77;5.00;;;21.80;1.00;;;;;;7362331;19;20596;-67
2023/06/08 08:05:36;;;;;;;6.30;5.18;;;22.20;1.00;;;;;;7384649;19;20019;-67
2023/06/08 08:08:06;;;;;;;7.88;5.50;;;22.10;1.00;;;;;;7362698;19;20086;-67
2023/06/08 08:10:36;;;;;;;6.70;6.10;;;22.60;1.00;;;;;;7362014;19;20019;-68
2023/06/08 08:13:07;;;;;;;9.98;5.82;;;22.20;1.00;;;;;;7361156;19;20026;-67
2023/06/08 08:15:40;;;;;;;6.18;5.55;;;22.40;1.00;;;;;;7362368;19;20807;-67
2023/06/08 08:18:10;;;;;;;6.35;5.50;;;22.30;1.00;;;;;;7363536;19;20014;-68
2023/06/08 08:20:40;;;;;;;5.93;5.32;;;22.50;1.00;;;;;;7385568;19;20022;-67
2023/06/08 08:23:10;;;;;;;5.82;4.82;;;22.50;1.00;;;;;;7366562;19;20014;-68
2023/06/08 08:25:40;;;;;;;6.43;4.90;;;22.10;1.00;;;;;;7369031;19;20421;-67
2023/06/08 08:28:10;;;;;;;5.50;5.00;;;22.20;1.00;;;;;;7369780;19;20015;-67
2023/06/08 08:30:43;;;;;;;5.65;4.85;;;22.40;1.00;;;;;;7369980;19;20029;-67
2023/06/08 08:33:14;;;;;;;9.32;5.40;;;22.50;1.00;;;;;;7369141;19;20026;-67
2023/06/08 08:35:46;;;;;;;7.55;5.78;;;22.60;1.00;;;;;;7391872;19;20014;-68
2023/06/08 08:38:17;;;;;;;5.82;5.10;;;22.70;1.00;;;;;;7368458;19;20430;-67
2023/06/08 08:40:47;;;;;;;5.90;5.10;;;22.60;1.00;;;;;;7367500;19;20018;-68
2023/06/08 08:43:22;;;;;;;7.10;5.50;;;22.40;1.00;;;;;;7369967;19;20014;-67
2023/06/08 08:45:57;;;;;;;8.07;5.97;;;22.70;1.00;;;;;;7370233;19;20484;-67
2023/06/08 08:48:29;;;;;;;;;;;22.40;1.00;;;;;;7370465;19;20777;-67
2023/06/08 08:51:00;;;;;;;10.82;5.97;;;22.60;1.00;;;;;;7387852;19;20361;-68
2023/06/08 08:53:30;;;;;;;8.05;6.00;;;23.10;1.00;;;;;;7368993;19;20015;-67
2023/06/08 08:56:03;;;;;;;6.80;6.20;;;23.20;1.00;;;;;;7368910;19;20043;-67
2023/06/08 08:58:34;;;;;;;6.72;5.97;;;23.00;1.00;;;;;;7369044;19;20067;-67
2023/06/08 09:01:08;;;;;;;8.68;6.18;;;23.20;1.00;;;;;;7369171;19;20022;-68
2023/06/08 09:03:38;;;;;;;10.80;7.15;;;23.80;1.00;;;;;;7368607;19;20031;-67
2023/06/08 09:06:08;;;;;;;7.07;6.35;;;23.70;1.00;;;;;;7368795;19;20025;-68
2023/06/08 09:08:38;;;;;;;8.23;6.07;;;23.10;1.00;;;;;;7390328;19;20459;-66
2023/06/08 09:11:10;;;;;;;8.85;6.38;;;22.90;1.00;;;;;;7365621;19;20015;-66
2023/06/08 09:13:41;;;;;;;7.25;5.82;;;23.40;1.00;;;;;;7368150;19;20022;-67
2023/06/08 09:16:16;;;;;;;10.15;6.88;;;23.70;1.00;;;;;;7368430;19;20082;-68
2023/06/08 09:18:47;;;;;;;6.78;6.07;;;23.30;1.00;;;;;;7368572;19;20006;-68
2023/06/08 09:21:24;;;;;;;7.53;6.05;;;23.50;1.00;;;;;;7365970;19;21555;-67
2023/06/08 09:24:08;;;;;;;7.45;6.10;;;23.50;1.00;;;;;;7390065;19;20038;-68
2023/06/08 09:26:41;;;;;;;6.38;5.53;;;23.80;1.00;;;;;;7367860;19;20024;-67
2023/06/08 09:29:12;;;;;;;5.50;5.00;;;23.90;1.00;;;;;;7367579;19;20402;-68
2023/06/08 09:31:52;;;;;;;7.07;5.93;;;24.20;1.00;;;;;;7360179;19;20086;-67
2023/06/08 09:34:22;;;;;;;6.93;6.25;;;24.00;1.00;;;;;;7364524;19;20039;-68
2023/06/08 09:36:53;;;;;;;6.18;5.50;;;24.10;1.00;;;;;;7367466;19;20440;-67
2023/06/08 09:39:22;;;;;;;7.47;5.65;;;24.30;1.00;;;;;;7368052;19;20086;-68
2023/06/08 09:41:59;;;;;;;6.18;5.43;;;24.50;1.00;;;;;;7388806;19;20061;-68
2023/06/08 09:44:29;;;;;;;6.25;5.65;;;24.60;1.00;;;;;;7367096;19;20018;-68
2023/06/08 09:47:01;;;;;;;7.30;5.60;;;24.30;1.00;;;;;;7367862;19;20035;-67
2023/06/08 09:49:31;;;;;;;7.88;5.50;;;24.10;1.00;;;;;;7366965;19;20469;-67
2023/06/08 09:52:01;;;;;;;8.15;5.40;;;24.70;1.00;;;;;;7366910;19;20007;-67
2023/06/08 09:54:36;;;;;;;6.88;6.00;;;25.00;1.00;;;;;;7367127;19;20014;-67
2023/06/08 09:57:07;;;;;;;7.00;5.90;;;24.90;1.00;;;;;;7367319;19;20471;-67
2023/06/08 09:59:44;;;;;;;6.47;5.07;;;24.90;1.00;;;;;;7388359;19;20014;-69
2023/06/08 10:02:22;;;;;;;6.90;6.20;;;25.00;1.00;;;;;;7366153;19;20038;-67
2023/06/08 10:04:57;;;;;;;6.22;5.63;;;25.10;1.00;;;;;;7366113;19;20136;-67
2023/06/08 10:07:29;;;;;;;6.60;6.00;;;25.10;1.00;;;;;;7367200;19;20526;-67
2023/06/08 10:10:04;;;;;;;7.13;5.70;;;25.00;1.00;;;;;;7365970;19;20006;-67
2023/06/08 10:12:35;;;;;;;6.53;5.88;;;25.30;1.00;;;;;;7367346;19;20082;-66
2023/06/08 10:15:07;;;;;;;6.30;5.70;;;25.50;1.00;;;;;;7365730;19;20582;-68
2023/06/08 10:17:41;;;;;;;7.05;5.85;;;25.50;1.00;;;;;;7388345;19;20099;-67
2023/06/08 10:20:16;;;;;;;6.03;5.13;;;25.00;1.00;;;;;;7365698;19;20018;-67
2023/06/08 10:22:48;;;;;;;5.85;4.93;;;25.10;1.00;;;;;;7366048;19;20371;-67
2023/06/08 10:25:18;;;;;;;4.93;4.45;;;25.40;1.00;;;;;;7363748;19;20018;-67
2023/06/08 10:27:52;;;;;;;5.22;4.68;;;25.20;1.00;;;;;;7365718;19;20002;-67
2023/06/08 10:30:30;;;;;;;;;;;25.60;1.00;;;;;;7365018;19;20026;-67
2023/06/08 10:33:24;;;;;;;7.25;5.05;;;25.70;1.00;;;;;;7386890;19;19926;-67
2023/06/08 10:36:09;;;;;;;5.03;4.53;;;25.40;1.00;;;;;;7364661;19;20023;-68
2023/06/08 10:38:41;;;;;;;6.25;4.20;;;25.30;1.00;;;;;;7366174;19;20076;-69
2023/06/08 10:41:11;;;;;;;5.13;4.30;;;25.80;1.00;;;;;;7365484;19;20018;-68
2023/06/08 10:43:45;;;;;;;5.43;4.90;;;26.20;1.00;;;;;;7364134;19;20047;-68
2023/06/08 10:46:43;;;;;;;7.45;6.45;;;26.20;1.00;;;;;;7366243;19;20018;-68
2023/06/08 10:49:23;;;;;;;4.97;4.50;;;26.60;1.00;;;;;;7365928;19;20022;-68
2023/06/08 10:51:56;;;;;;;4.97;4.57;;;26.50;1.00;;;;;;7364424;19;20053;-67
2023/06/08 10:54:27;;;;;;;8.55;5.53;;;26.70;1.00;;;;;;7365617;19;20022;-68
2023/06/08 10:57:00;;;;;;;5.30;4.63;;;26.70;1.00;;;;;;7387838;19;20022;-68
2023/06/08 10:59:46;;;;;;;6.20;4.82;;;26.50;1.00;;;;;;7365138;19;20011;-68
2023/06/08 11:02:17;;;;;;;6.03;5.18;;;26.30;1.00;;;;;;7365013;19;20018;-68
2023/06/08 11:04:53;;;;;;;5.43;4.70;;;26.30;1.00;;;;;;7365066;19;20572;-68
2023/06/08 11:07:40;;;;;;;5.55;5.05;;;26.70;1.00;;;;;;7367115;19;20545;-69
2023/06/08 11:10:11;;;;;;;6.38;4.90;;;26.60;1.00;;;;;;7390476;19;20462;-66
2023/06/08 11:12:41;;;;;;;7.10;5.68;;;26.90;1.00;;;;;;7343118;19;20010;-68
2023/06/08 11:15:12;;;;;;;7.32;5.25;;;26.80;1.00;;;;;;7389676;19;20021;-67
2023/06/08 11:17:45;;;;;;;6.30;5.13;;;27.00;1.00;;;;;;7367319;19;20483;-69
2023/06/08 11:20:19;;;;;;;7.10;5.45;;;27.10;1.00;;;;;;7387990;19;20030;-68
2023/06/08 11:22:52;;;;;;;5.60;5.05;;;26.60;1.00;;;;;;7346961;19;20002;-68
2023/06/08 11:25:23;;;;;;;6.38;5.78;;;26.70;1.00;;;;;;7360803;19;20702;-68
2023/06/08 11:27:57;;;;;;;6.22;5.63;;;26.90;1.00;;;;;;7388128;19;20007;-67
2023/06/08 11:30:31;;;;;;;5.72;5.10;;;26.30;1.00;;;;;;7365059;19;20406;-69
2023/06/08 11:33:01;;;;;;;6.97;5.25;;;26.20;1.00;;;;;;7390344;19;20023;-67
2023/06/08 11:35:34;;;;;;;6.20;5.60;;;26.70;1.00;;;;;;7391991;19;20462;-68
2023/06/08 11:38:05;;;;;;;5.82;5.32;;;26.50;1.00;;;;;;7391547;19;20018;-68
2023/06/08 11:40:41;;;;;;;5.60;5.10;;;26.60;1.00;;;;;;7389668;19;20039;-68
2023/06/08 11:43:13;;;;;;;6.40;5.65;;;27.20;1.00;;;;;;7391549;19;20010;-67
2023/06/08 11:45:44;;;;;;;6.28;5.68;;;26.40;1.00;;;;;;7262064;19;20110;-67
2023/06/08 11:48:14;;;;;;;7.32;5.22;;;26.60;1.00;;;;;;7390373;19;20021;-67
2023/06/08 11:50:52;;;;;;;6.55;5.88;;;27.40;1.00;;;;;;7390629;19;20107;-67
2023/06/08 11:53:24;;;;;;;7.00;5.50;;;27.20;1.00;;;;;;7348895;19;20018;-69
2023/06/08 11:55:57;;;;;;;6.27;5.67;;;27.80;1.00;;;;;;7388249;19;20021;-68
2023/06/08 11:58:28;;;;;;;6.22;5.30;;;27.30;1.00;;;;;;7348419;19;20305;-68
2023/06/08 12:01:11;;;;;;;7.28;5.82;;;27.10;1.00;;;;;;7388950;19;20010;-69
2023/06/08 12:03:45;;;;;;;10.48;5.70;;;27.50;1.00;;;;;;7351644;19;20014;-67
2023/06/08 12:06:18;;;;;;;6.90;5.72;;;27.90;1.00;;;;;;7390074;19;20094;-68
2023/06/08 12:08:51;;;;;;;5.78;5.22;;;28.00;1.00;;;;;;7358280;19;20092;-67
2023/06/08 12:11:21;;;;;;;6.72;5.25;;;28.20;1.00;;;;;;7389255;19;20023;-68
2023/06/08 12:13:56;;;;;;;6.18;5.57;;;27.80;1.00;;;;;;7347478;19;20075;-67
2023/06/08 12:16:26;;;;;;;6.15;5.50;;;27.70;1.00;;;;;;7385295;19;20035;-67
2023/06/08 12:18:59;;;;;;;6.03;5.30;;;27.70;1.00;;;;;;7310390;19;20340;-67
2023/06/08 12:21:31;;;;;;;5.65;5.15;;;28.30;1.00;;;;;;7385059;19;20011;-66
2023/06/08 12:24:01;;;;;;;5.88;5.25;;;27.80;1.00;;;;;;7386645;19;20027;-68
2023/06/08 12:26:31;;;;;;;6.85;5.30;;;27.40;1.00;;;;;;7383894;19;20388;-68
2023/06/08 12:29:05;;;;;;;7.22;5.40;;;27.00;1.00;;;;;;7385730;19;20018;-67
2023/06/08 12:31:35;;;;;;;5.50;5.00;;;27.20;1.00;;;;;;7386480;19;20482;-67
2023/06/08 12:34:06;;;;;;;5.97;5.38;;;27.90;1.00;;;;;;7386603;19;20021;-67
2023/06/08 12:36:38;;;;;;;5.65;5.15;;;27.60;1.00;;;;;;7388388;19;20018;-67
2023/06/08 12:39:08;;;;;;;6.93;5.35;;;27.30;1.00;;;;;;7384344;19;20062;-68
2023/06/08 12:41:38;;;;;;;6.55;5.78;;;27.50;1.00;;;;;;7384911;19;20404;-68
2023/06/08 12:44:10;;;;;;;5.90;4.93;;;27.10;1.00;;;;;;7384655;19;20022;-68
2023/06/08 12:46:41;;;;;;;5.15;4.60;;;26.90;1.00;;;;;;7385474;19;20078;-67
2023/06/08 12:49:11;;;;;;;6.90;5.63;;;27.20;1.00;;;;;;7385496;19;20015;-68
2023/06/08 12:51:44;;;;;;;11.48;4.65;;;26.90;1.00;;;;;;7384984;19;21293;-68
2023/06/08 12:54:14;;;;;;;8.48;4.30;;;26.30;1.00;;;;;;7384554;19;20018;-67
2023/06/08 12:56:44;;;;;;;7.13;4.20;;;26.20;1.00;;;;;;7383250;19;20014;-69
2023/06/08 12:59:14;;;;;;;15.20;3.60;;;26.00;1.00;;;;;;7380396;19;20079;-68
2023/06/08 13:01:44;;;;;;;12.48;4.43;;;25.00;1.00;;;;;;7385004;19;20011;-67
2023/06/08 13:04:14;;;;;;;11.75;4.78;;;24.40;1.00;;;;;;7383924;19;20549;-67
2023/06/08 13:06:47;;;;;;;9.55;5.00;;;24.20;1.00;;;;;;7386933;19;20086;-67
2023/06/08 13:09:17;;;;;;;9.63;4.75;;;23.80;1.00;;;;;;7390962;19;20549;-67
2023/06/08 13:11:47;;;;;;;14.55;5.32;;;23.00;1.00;;;;;;7387715;19;20021;-68
2023/06/08 13:14:17;;;;;;;24.33;9.60;;;21.50;1.00;;;;;;7390484;19;20022;-67
2023/06/08 13:16:47;;;;;;;16.95;7.18;;;20.90;1.00;;;;;;7390478;19;20015;-66
2023/06/08 13:19:17;;;;;;;26.42;9.35;;;20.40;1.00;;;;;;7391459;19;20133;-66
2023/06/08 13:21:50;;;;;;;23.85;8.27;;;18.80;1.00;;;;;;7390593;19;20067;-66
2023/06/08 13:24:20;;;;;;;25.20;8.40;;;17.50;1.00;;;;;;7388044;19;20089;-65